createdAt,value
2022-11-16T00:01:59.740Z,86.63
2022-11-16T00:04:26.096Z,87.55
2022-11-16T00:06:52.476Z,87.93
2022-11-16T00:09:26.877Z,87.63
2022-11-16T00:11:56.022Z,88.00
2022-11-16T00:14:24.190Z,88.57
2022-11-16T00:16:50.572Z,88.62
2022-11-16T00:19:17.122Z,88.68
2022-11-16T00:21:43.767Z,89.00
2022-11-16T00:24:18.065Z,88.62
2022-11-16T00:26:44.724Z,89.18
2022-11-16T00:29:25.417Z,89.04
2022-11-16T00:31:53.646Z,88.92
2022-11-16T00:34:21.285Z,88.91
2022-11-16T00:36:47.713Z,89.59
2022-11-16T00:39:15.390Z,89.77
2022-11-16T00:41:42.597Z,89.97
2022-11-16T00:44:10.042Z,90.77
2022-11-16T00:46:36.558Z,91.87
2022-11-16T00:49:03.501Z,90.83
2022-11-16T00:51:29.947Z,91.23
2022-11-16T00:53:56.332Z,92.18
2022-11-16T00:56:23.465Z,91.56
2022-11-16T00:58:50.432Z,91.78
2022-11-16T01:01:16.907Z,92.38
2022-11-16T01:03:43.502Z,92.40
2022-11-16T01:06:14.217Z,92.22
2022-11-16T01:08:41.953Z,92.13
2022-11-16T01:11:27.526Z,93.52
2022-11-16T01:13:55.666Z,92.69
2022-11-16T01:16:23.355Z,92.94
2022-11-16T01:18:52.269Z,93.25
2022-11-16T01:21:19.688Z,92.94
2022-11-16T01:23:46.370Z,93.54
2022-11-16T01:26:12.936Z,93.25
2022-11-16T01:28:42.139Z,92.91
2022-11-16T01:31:09.647Z,92.91
2022-11-16T01:33:36.712Z,93.44
2022-11-16T01:36:03.503Z,93.45
2022-11-16T01:38:30.276Z,94.61
2022-11-16T01:40:58.962Z,93.73
2022-11-16T01:43:26.977Z,93.93
2022-11-16T01:45:53.506Z,93.77
2022-11-16T01:48:27.598Z,93.90
2022-11-16T01:50:55.977Z,93.82
2022-11-16T01:53:23.264Z,93.58
2022-11-16T01:55:49.934Z,93.69
2022-11-16T01:58:23.026Z,93.66
2022-11-16T02:00:54.850Z,93.64
2022-11-16T02:03:21.688Z,93.60
2022-11-16T02:06:09.399Z,93.50
2022-11-16T02:09:06.692Z,93.47
2022-11-16T02:12:07.738Z,93.23
2022-11-16T02:14:52.111Z,93.67
2022-11-16T02:17:46.314Z,93.75
2022-11-16T02:20:38.505Z,93.93
2022-11-16T02:23:36.377Z,93.85
2022-11-16T02:26:05.836Z,94.00
2022-11-16T02:28:51.043Z,93.62
2022-11-16T02:31:27.299Z,93.86
2022-11-16T02:33:57.204Z,93.92
2022-11-16T02:36:24.999Z,94.38
2022-11-16T02:38:57.998Z,94.37
2022-11-16T02:41:28.371Z,94.41
2022-11-16T02:44:10.132Z,94.30
2022-11-16T02:46:39.267Z,93.91
2022-11-16T02:49:13.710Z,94.22
2022-11-16T02:51:42.808Z,94.18
2022-11-16T02:54:18.137Z,94.14
2022-11-16T02:57:02.844Z,94.24
2022-11-16T02:59:31.512Z,94.02
2022-11-16T03:02:13.888Z,94.30
2022-11-16T03:04:50.500Z,94.73
2022-11-16T03:07:23.968Z,94.65
2022-11-16T03:09:51.867Z,94.96
2022-11-16T03:12:22.644Z,94.84
2022-11-16T03:15:11.719Z,94.46
2022-11-16T03:17:42.430Z,94.13
2022-11-16T03:20:16.328Z,94.38
2022-11-16T03:22:46.110Z,94.59
2022-11-16T03:25:16.824Z,94.31
2022-11-16T03:28:09.716Z,94.31
2022-11-16T03:30:41.154Z,93.98
2022-11-16T03:33:16.671Z,94.66
2022-11-16T03:35:52.246Z,94.86
2022-11-16T03:38:21.251Z,94.44
2022-11-16T03:40:50.071Z,94.29
2022-11-16T03:43:19.123Z,94.48
2022-11-16T03:45:46.842Z,94.72
2022-11-16T03:48:15.826Z,94.57
2022-11-16T03:50:43.044Z,94.10
2022-11-16T03:53:09.546Z,93.95
2022-11-16T03:55:35.931Z,94.29
2022-11-16T03:58:02.342Z,93.85
2022-11-16T04:00:29.095Z,93.94
2022-11-16T04:02:55.807Z,94.70
2022-11-16T04:05:41.915Z,94.91
2022-11-16T04:08:35.280Z,94.84
2022-11-16T04:11:21.572Z,94.96
2022-11-16T04:14:09.200Z,95.05
2022-11-16T04:16:54.235Z,94.53
2022-11-16T04:19:39.216Z,94.59
2022-11-16T04:22:31.946Z,94.42
2022-11-16T04:25:27.534Z,94.29
2022-11-16T04:28:16.391Z,94.00
2022-11-16T04:31:02.500Z,94.10
2022-11-16T04:33:48.665Z,93.88
2022-11-16T04:36:36.515Z,93.72
2022-11-16T04:39:03.939Z,93.64
2022-11-16T04:41:49.987Z,93.52
2022-11-16T04:44:16.533Z,94.91
2022-11-16T04:47:02.565Z,93.88
2022-11-16T04:49:28.934Z,93.41
2022-11-16T04:51:55.545Z,93.53
2022-11-16T04:54:22.017Z,93.90
2022-11-16T04:56:48.521Z,93.83
2022-11-16T04:59:16.207Z,94.25
2022-11-16T05:02:01.565Z,93.83
2022-11-16T05:04:28.961Z,94.31
2022-11-16T05:06:58.301Z,93.73
2022-11-16T05:09:25.385Z,93.32
2022-11-16T05:11:52.063Z,93.31
2022-11-16T05:14:18.444Z,93.71
2022-11-16T05:16:45.110Z,94.10
2022-11-16T05:19:30.310Z,93.63
2022-11-16T05:21:56.903Z,94.13
2022-11-16T05:24:35.416Z,93.92
2022-11-16T05:27:10.381Z,93.37
2022-11-16T05:29:37.265Z,93.76
2022-11-16T05:32:04.660Z,93.75
2022-11-16T05:34:31.205Z,93.63
2022-11-16T05:36:59.569Z,94.64
2022-11-16T05:39:26.364Z,94.30
2022-11-16T05:41:53.053Z,93.82
2022-11-16T05:44:19.652Z,93.29
2022-11-16T05:46:46.617Z,92.95
2022-11-16T05:49:14.518Z,93.35
2022-11-16T05:51:43.234Z,93.55
2022-11-16T05:54:13.208Z,93.58
2022-11-16T05:56:39.855Z,92.87
2022-11-16T05:59:06.601Z,92.91
2022-11-16T06:01:33.047Z,93.67
2022-11-16T06:04:01.121Z,93.49
2022-11-16T06:06:28.652Z,93.89
2022-11-16T06:08:55.061Z,93.43
2022-11-16T06:11:21.928Z,93.86
2022-11-16T06:13:48.341Z,93.38
2022-11-16T06:16:14.668Z,93.24
2022-11-16T06:18:44.352Z,92.61
2022-11-16T06:21:12.251Z,91.75
2022-11-16T06:23:38.844Z,91.56
2022-11-16T06:26:06.126Z,91.74
2022-11-16T06:28:33.480Z,91.31
2022-11-16T06:31:00.033Z,91.46
2022-11-16T06:33:29.653Z,91.29
2022-11-16T06:35:59.784Z,91.46
2022-11-16T06:38:27.425Z,91.50
2022-11-16T06:40:56.104Z,91.17
2022-11-16T06:43:23.535Z,90.32
2022-11-16T06:45:53.082Z,90.71
2022-11-16T06:48:20.477Z,91.05
2022-11-16T06:50:51.839Z,91.55
2022-11-16T06:53:19.210Z,91.60
2022-11-16T06:55:45.588Z,91.13
2022-11-16T06:58:12.275Z,91.25
2022-11-16T07:00:38.723Z,91.03
2022-11-16T07:03:05.245Z,92.09
2022-11-16T07:05:32.143Z,91.39
2022-11-16T07:07:59.018Z,91.36
2022-11-16T07:10:26.154Z,91.29
2022-11-16T07:12:52.642Z,90.60
2022-11-16T07:15:19.713Z,90.62
2022-11-16T07:17:46.059Z,90.71
2022-11-16T07:20:12.597Z,89.86
2022-11-16T07:22:38.925Z,89.91
2022-11-16T07:25:05.936Z,89.35
2022-11-16T07:27:32.250Z,88.86
2022-11-16T07:29:58.573Z,88.57
2022-11-16T07:32:24.873Z,89.10
2022-11-16T07:34:51.182Z,88.51
2022-11-16T07:37:17.572Z,88.93
2022-11-16T07:39:43.944Z,88.91
2022-11-16T07:42:11.763Z,88.27
2022-11-16T07:44:39.033Z,88.82
2022-11-16T07:47:06.233Z,88.82
2022-11-16T07:49:32.705Z,88.75
2022-11-16T07:51:59.110Z,89.00
2022-11-16T07:54:25.489Z,89.00
2022-11-16T07:56:52.127Z,88.88
2022-11-16T07:59:18.440Z,88.59
2022-11-16T08:01:47.164Z,88.53
2022-11-16T08:04:15.299Z,88.49
2022-11-16T08:06:41.617Z,88.08
2022-11-16T08:09:09.304Z,88.05
2022-11-16T08:11:35.637Z,87.74
2022-11-16T08:14:02.189Z,87.13
2022-11-16T08:16:28.648Z,87.59
2022-11-16T08:18:55.158Z,87.51
2022-11-16T08:21:21.516Z,87.45
2022-11-16T08:23:47.872Z,87.15
2022-11-16T08:26:19.295Z,87.74
2022-11-16T08:28:47.375Z,87.83
2022-11-16T08:31:20.109Z,87.57
2022-11-16T08:33:47.845Z,86.44
2022-11-16T08:36:17.418Z,86.66
2022-11-16T08:38:45.142Z,86.16
2022-11-16T08:41:11.753Z,85.69
2022-11-16T08:43:40.260Z,85.42
2022-11-16T08:46:07.994Z,85.53
2022-11-16T08:48:35.787Z,85.32
2022-11-16T08:51:17.586Z,84.71
2022-11-16T08:53:45.504Z,83.99
2022-11-16T08:56:13.561Z,84.27
2022-11-16T08:58:43.405Z,83.55
2022-11-16T09:01:18.032Z,82.80
2022-11-16T09:03:45.079Z,82.06
2022-11-16T09:06:12.565Z,81.34
2022-11-16T09:08:41.099Z,81.56
2022-11-16T09:11:11.091Z,80.18
2022-11-16T09:13:37.765Z,80.94
2022-11-16T09:16:04.992Z,80.66
2022-11-16T09:18:33.649Z,78.63
2022-11-16T09:21:00.317Z,79.81
2022-11-16T09:23:26.768Z,79.28
2022-11-16T09:25:53.545Z,79.40
2022-11-16T09:28:21.912Z,78.87
2022-11-16T09:30:50.768Z,78.93
2022-11-16T09:33:17.444Z,77.36
2022-11-16T09:35:44.067Z,77.14
2022-11-16T09:38:11.882Z,75.22
2022-11-16T09:40:45.930Z,73.86
2022-11-16T09:43:27.790Z,74.76
2022-11-16T09:46:31.943Z,75.78
2022-11-16T09:49:02.704Z,74.34
2022-11-16T09:51:33.696Z,73.12
2022-11-16T09:54:18.992Z,73.63
2022-11-16T09:56:49.033Z,74.33
2022-11-16T09:59:23.228Z,74.72
2022-11-16T10:01:58.026Z,73.84
2022-11-16T10:04:39.324Z,73.74
2022-11-16T10:07:14.209Z,71.00
2022-11-16T10:09:40.779Z,70.48
2022-11-16T10:12:30.348Z,70.47
2022-11-16T10:15:13.822Z,69.61
2022-11-16T10:17:59.842Z,66.25
2022-11-16T10:20:49.705Z,66.46
2022-11-16T10:23:22.104Z,64.53
2022-11-16T10:26:10.532Z,64.79
2022-11-16T10:28:55.592Z,63.23
2022-11-16T10:31:55.486Z,62.21
2022-11-16T10:34:26.008Z,60.34
2022-11-16T10:36:56.583Z,59.57
2022-11-16T10:39:25.005Z,58.70
2022-11-16T10:41:51.674Z,57.04
2022-11-16T10:44:30.079Z,55.57
2022-11-16T10:47:19.602Z,54.70
2022-11-16T10:49:53.903Z,52.97
2022-11-16T10:52:20.517Z,51.80
2022-11-16T10:54:46.890Z,52.80
2022-11-16T10:57:17.201Z,53.52
2022-11-16T10:59:49.864Z,53.31
2022-11-16T11:02:25.051Z,54.11
2022-11-16T11:05:17.745Z,52.64
2022-11-16T11:08:06.099Z,50.82
2022-11-16T11:10:39.555Z,49.76
2022-11-16T11:13:11.858Z,48.08
2022-11-16T11:15:39.997Z,48.30
2022-11-16T11:18:19.112Z,46.43
2022-11-16T11:20:50.276Z,46.68
2022-11-16T11:23:20.337Z,46.36
2022-11-16T11:25:58.656Z,47.63
2022-11-16T11:28:28.495Z,46.54
2022-11-16T11:31:09.282Z,50.15
2022-11-16T11:33:44.068Z,52.02
2022-11-16T11:36:20.020Z,54.08
2022-11-16T11:39:11.545Z,56.20
2022-11-16T11:41:46.320Z,56.38
2022-11-16T11:44:12.600Z,57.28
2022-11-16T11:49:35.793Z,58.66
2022-11-16T11:52:17.088Z,58.33
2022-11-16T11:54:48.530Z,57.83
2022-11-16T11:57:22.195Z,58.43
2022-11-16T11:59:52.264Z,57.81
2022-11-16T12:02:36.801Z,57.42
2022-11-16T12:05:21.962Z,57.37
2022-11-16T12:07:59.206Z,58.33
2022-11-16T12:10:44.286Z,57.65
2022-11-16T12:13:20.047Z,58.87
2022-11-16T12:16:04.746Z,57.98
2022-11-16T12:18:40.048Z,58.05
2022-11-16T12:21:28.364Z,57.00
2022-11-16T12:24:22.519Z,57.78
2022-11-16T12:26:55.176Z,57.58
2022-11-16T12:29:37.089Z,57.65
2022-11-16T12:32:27.921Z,57.79
2022-11-16T12:35:31.902Z,58.00
2022-11-16T12:38:10.569Z,57.59
2022-11-16T12:41:05.055Z,55.65
2022-11-16T12:43:49.442Z,56.50
2022-11-16T12:46:15.728Z,55.91
2022-11-16T12:49:27.233Z,55.02
2022-11-16T12:52:32.033Z,56.23
2022-11-16T12:55:29.816Z,55.66
2022-11-16T12:58:27.064Z,55.86
2022-11-16T13:01:17.212Z,54.96
2022-11-16T13:03:54.273Z,55.99
2022-11-16T13:06:28.689Z,54.50
2022-11-16T13:09:02.724Z,54.74
2022-11-16T13:11:35.526Z,54.98
2022-11-16T13:14:07.407Z,54.66
2022-11-16T13:16:34.431Z,54.94
2022-11-16T13:19:03.952Z,55.31
2022-11-16T13:21:53.421Z,55.19
2022-11-16T13:24:45.612Z,55.41
2022-11-16T13:27:34.312Z,55.36
2022-11-16T13:30:14.652Z,56.37
2022-11-16T13:32:47.131Z,55.97
2022-11-16T13:35:16.357Z,55.74
2022-11-16T13:37:46.508Z,55.50
2022-11-16T13:40:30.585Z,55.95
2022-11-16T13:43:11.963Z,55.51
2022-11-16T13:46:00.768Z,55.34
2022-11-16T13:48:38.431Z,56.89
2022-11-16T13:51:08.752Z,56.86
2022-11-16T13:56:47.539Z,55.53
2022-11-16T13:59:16.335Z,56.55
2022-11-16T14:02:16.310Z,56.28
2022-11-16T14:04:55.503Z,56.44
2022-11-16T14:07:42.699Z,56.87
2022-11-16T14:10:11.268Z,57.57
2022-11-16T14:12:37.528Z,57.60
2022-11-16T14:15:19.659Z,58.30
2022-11-16T14:18:15.252Z,57.91
2022-11-16T14:20:58.173Z,58.16
2022-11-16T14:23:46.525Z,58.75
2022-11-16T14:26:18.780Z,58.65
2022-11-16T14:28:49.353Z,59.05
2022-11-16T14:31:29.041Z,59.51
2022-11-16T14:33:57.819Z,59.57
2022-11-16T14:36:43.041Z,59.68
2022-11-16T14:39:22.979Z,59.78
2022-11-16T14:41:49.528Z,59.43
2022-11-16T14:44:21.852Z,59.85
2022-11-16T14:46:48.397Z,60.17
2022-11-16T14:49:17.809Z,59.54
2022-11-16T14:51:47.502Z,59.34
2022-11-16T14:54:28.324Z,60.38
2022-11-16T14:56:56.959Z,60.29
2022-11-16T14:59:23.762Z,60.66
2022-11-16T15:01:52.189Z,60.54
2022-11-16T15:04:20.262Z,60.61
2022-11-16T15:06:55.144Z,60.97
2022-11-16T15:09:39.119Z,61.42
2022-11-16T15:12:31.365Z,61.46
2022-11-16T15:15:02.943Z,62.34
2022-11-16T15:17:33.237Z,63.57
2022-11-16T15:20:03.950Z,63.83
2022-11-16T15:22:39.152Z,63.94
2022-11-16T15:25:06.133Z,63.67
2022-11-16T15:27:38.560Z,63.95
2022-11-16T15:30:19.487Z,64.10
2022-11-16T15:32:48.448Z,64.65
2022-11-16T15:35:21.825Z,64.83
2022-11-16T15:37:48.561Z,64.80
2022-11-16T15:40:15.130Z,64.67
2022-11-16T15:42:43.135Z,64.81
2022-11-16T15:45:20.871Z,64.76
2022-11-16T15:47:48.357Z,64.93
2022-11-16T15:50:19.224Z,64.87
2022-11-16T15:52:54.525Z,65.16
2022-11-16T15:55:20.939Z,65.66
2022-11-16T15:58:00.794Z,65.53
2022-11-16T16:00:27.903Z,66.00
2022-11-16T16:03:02.404Z,66.32
2022-11-16T16:05:37.769Z,65.81
2022-11-16T16:08:05.580Z,65.83
2022-11-16T16:10:32.618Z,65.68
2022-11-16T16:13:00.774Z,65.22
2022-11-16T16:15:33.963Z,65.59
2022-11-16T16:18:01.826Z,65.57
2022-11-16T16:20:30.919Z,65.53
2022-11-16T16:23:15.786Z,65.35
2022-11-16T16:25:47.467Z,65.18
2022-11-16T16:28:16.600Z,64.82
2022-11-16T16:30:43.032Z,64.93
2022-11-16T16:33:18.710Z,64.78
2022-11-16T16:35:49.478Z,64.62
2022-11-16T16:38:15.809Z,64.51
2022-11-16T16:40:42.133Z,65.04
2022-11-16T16:43:08.465Z,65.34
2022-11-16T16:45:41.767Z,65.18
2022-11-16T16:48:14.127Z,65.05
2022-11-16T16:50:40.559Z,64.92
2022-11-16T16:53:10.461Z,64.84
2022-11-16T16:55:37.645Z,65.48
2022-11-16T16:58:04.882Z,65.61
2022-11-16T17:00:31.355Z,65.72
2022-11-16T17:02:58.479Z,65.62
2022-11-16T17:05:33.836Z,65.78
2022-11-16T17:08:01.211Z,65.74
2022-11-16T17:10:27.808Z,65.65
2022-11-16T17:12:57.505Z,65.70
2022-11-16T17:15:24.783Z,65.63
2022-11-16T17:17:51.479Z,65.59
2022-11-16T17:20:17.851Z,65.55
2022-11-16T17:22:44.327Z,65.17
2022-11-16T17:25:11.024Z,65.23
2022-11-16T17:27:37.402Z,65.48
2022-11-16T17:30:04.504Z,65.82
2022-11-16T17:32:30.937Z,66.11
2022-11-16T17:34:57.268Z,66.19
2022-11-16T17:37:23.577Z,66.50
2022-11-16T17:39:49.916Z,66.35
2022-11-16T17:42:16.373Z,66.21
2022-11-16T17:44:42.733Z,66.29
2022-11-16T17:47:09.136Z,66.24
2022-11-16T17:49:35.569Z,65.95
2022-11-16T17:52:02.296Z,66.48
2022-11-16T17:54:28.653Z,66.55
2022-11-16T17:56:55.003Z,66.55
2022-11-16T17:59:26.443Z,66.47
2022-11-16T18:01:55.504Z,66.25
2022-11-16T18:04:21.870Z,66.50
2022-11-16T18:06:48.253Z,66.93
2022-11-16T18:09:14.717Z,66.95
2022-11-16T18:11:41.058Z,66.99
2022-11-16T18:14:07.474Z,67.38
2022-11-16T18:16:34.499Z,67.31
2022-11-16T18:19:03.161Z,67.42
2022-11-16T18:21:30.476Z,67.54
2022-11-16T18:23:59.031Z,67.60
2022-11-16T18:26:25.375Z,67.58
2022-11-16T18:28:52.918Z,67.79
2022-11-16T18:31:21.900Z,67.59
2022-11-16T18:33:51.847Z,67.75
2022-11-16T18:36:19.899Z,67.18
2022-11-16T18:38:46.630Z,67.70
2022-11-16T18:41:12.908Z,67.60
2022-11-16T18:43:40.969Z,67.90
2022-11-16T18:46:07.721Z,67.96
2022-11-16T18:48:34.341Z,68.21
2022-11-16T18:51:04.716Z,68.07
2022-11-16T18:53:32.592Z,67.64
2022-11-16T18:55:59.348Z,68.35
2022-11-16T19:01:15.746Z,68.29
2022-11-16T19:03:42.452Z,68.13
2022-11-16T19:06:10.536Z,67.97
2022-11-16T19:08:38.855Z,68.08
2022-11-16T19:11:07.241Z,68.01
2022-11-16T19:13:34.820Z,68.56
2022-11-16T19:16:01.599Z,68.52
2022-11-16T19:18:28.157Z,68.21
2022-11-16T19:21:06.206Z,68.14
2022-11-16T19:23:44.816Z,68.33
2022-11-16T19:26:15.467Z,68.02
2022-11-16T19:28:43.772Z,68.25
2022-11-16T19:31:14.035Z,68.22
2022-11-16T19:33:41.626Z,68.31
2022-11-16T19:36:13.528Z,68.20
2022-11-16T19:38:40.401Z,68.11
2022-11-16T19:41:08.232Z,68.48
2022-11-16T19:43:35.375Z,68.35
2022-11-16T19:46:16.337Z,68.57
2022-11-16T19:48:43.799Z,68.65
2022-11-16T19:51:16.335Z,69.02
2022-11-16T19:53:43.175Z,68.45
2022-11-16T19:56:15.301Z,68.78
2022-11-16T19:58:42.498Z,68.83
2022-11-16T20:01:22.941Z,69.08
2022-11-16T20:03:49.951Z,68.94
2022-11-16T20:06:20.350Z,68.70
2022-11-16T20:08:49.609Z,68.96
2022-11-16T20:11:17.473Z,68.64
2022-11-16T20:13:44.058Z,69.05
2022-11-16T20:16:12.409Z,68.99
2022-11-16T20:18:39.981Z,69.24
2022-11-16T20:21:07.696Z,69.08
2022-11-16T20:23:35.099Z,68.99
2022-11-16T20:26:10.254Z,69.29
2022-11-16T20:28:38.579Z,69.07
2022-11-16T20:31:11.413Z,69.04
2022-11-16T20:33:38.581Z,68.88
2022-11-16T20:36:11.804Z,69.10
2022-11-16T20:38:39.521Z,69.54
2022-11-16T20:41:14.371Z,69.50
2022-11-16T20:43:42.087Z,69.24
2022-11-16T20:46:10.451Z,69.41
2022-11-16T20:48:37.854Z,69.29
2022-11-16T20:51:05.849Z,69.78
2022-11-16T20:53:32.637Z,69.36
2022-11-16T20:55:59.374Z,69.77
2022-11-16T20:58:26.726Z,69.76
2022-11-16T21:00:53.166Z,69.90
2022-11-16T21:03:19.604Z,69.83
2022-11-16T21:05:50.210Z,70.25
2022-11-16T21:08:16.799Z,70.34
2022-11-16T21:10:43.875Z,70.13
2022-11-16T21:13:31.854Z,71.10
2022-11-16T21:16:04.192Z,70.71
2022-11-16T21:18:31.111Z,70.32
2022-11-16T21:21:01.933Z,70.21
2022-11-16T21:23:29.829Z,70.43
2022-11-16T21:26:02.345Z,70.76
2022-11-16T21:28:29.421Z,71.13
2022-11-16T21:30:56.574Z,70.64
2022-11-16T21:33:23.193Z,70.62
2022-11-16T21:35:49.633Z,70.14
2022-11-16T21:38:16.013Z,70.22
2022-11-16T21:40:43.975Z,70.58
2022-11-16T21:43:10.439Z,70.62
2022-11-16T21:45:36.860Z,71.21
2022-11-16T21:48:03.592Z,71.77
2022-11-16T21:50:32.144Z,72.18
2022-11-16T21:53:00.344Z,72.12
2022-11-16T21:55:27.103Z,72.25
2022-11-16T21:57:53.504Z,72.82
2022-11-16T22:00:20.284Z,73.49
2022-11-16T22:02:46.637Z,74.37
2022-11-16T22:05:31.747Z,76.49
2022-11-16T22:08:04.011Z,78.05
2022-11-16T22:10:30.493Z,78.83
2022-11-16T22:12:56.855Z,79.74
2022-11-16T22:15:23.319Z,80.68
2022-11-16T22:17:49.879Z,80.87
2022-11-16T22:20:16.672Z,80.61
2022-11-16T22:22:43.337Z,81.20
2022-11-16T22:25:09.940Z,81.38
2022-11-16T22:27:58.419Z,81.94
2022-11-16T22:30:22.834Z,82.15
2022-11-16T22:32:49.182Z,81.85
2022-11-16T22:35:15.779Z,82.43
2022-11-16T22:37:42.234Z,83.03
2022-11-16T22:40:14.917Z,84.14
2022-11-16T22:42:43.841Z,84.72
2022-11-16T22:45:10.513Z,85.27
2022-11-16T22:47:37.021Z,84.89
2022-11-16T22:50:04.002Z,84.80
2022-11-16T22:52:30.364Z,84.86
2022-11-16T22:54:56.722Z,85.04
2022-11-16T22:57:23.108Z,84.97
2022-11-16T22:59:49.458Z,85.42
2022-11-16T23:02:15.892Z,86.17
2022-11-16T23:04:42.247Z,85.96
2022-11-16T23:07:08.662Z,87.31
2022-11-16T23:09:35.043Z,86.61
2022-11-16T23:12:20.269Z,87.19
2022-11-16T23:15:04.814Z,87.84
2022-11-16T23:17:31.377Z,87.57
2022-11-16T23:20:17.762Z,87.80
2022-11-16T23:23:02.884Z,87.73
2022-11-16T23:25:47.551Z,86.66
2022-11-16T23:28:14.736Z,86.51
2022-11-16T23:30:41.567Z,87.02
2022-11-16T23:33:09.369Z,86.55
2022-11-16T23:35:35.930Z,86.87
2022-11-16T23:38:04.218Z,86.07
2022-11-16T23:40:33.717Z,85.95
2022-11-16T23:43:19.087Z,86.09
2022-11-16T23:45:45.859Z,85.20
2022-11-16T23:48:14.640Z,85.29
2022-11-16T23:50:41.930Z,85.28
2022-11-16T23:53:09.549Z,85.33
2022-11-16T23:55:38.345Z,85.58
2022-11-16T23:58:14.215Z,85.18
